This is the latest recevied weather packets stored in our database for station/object TA3HRJ-12. If no packets are shown the sender has not sent any weather packets the latest 10 day(s).
| Time | Temp. | Humidity | Pressure | Rain* | Wind** | Luminosity | Snow |
|---|---|---|---|---|---|---|---|
| 1778257563 | 29.44° C | 16% | 1031.4 hPa | - | - | - | - |
| 1778256663 | 30° C | 16% | 1031.4 hPa | - | - | - | - |
| 1778255763 | 41.67° C | 8% | 1031.4 hPa | - | - | - | - |
| 1778254863 | 48.89° C | 4% | 1031.5 hPa | - | - | - | - |
| 1778253963 | 51.11° C | 4% | 1031.4 hPa | - | - | - | - |
| 1778253063 | 47.22° C | 6% | 1031.5 hPa | - | - | - | - |
| 1778252163 | 40° C | 9% | 1031.5 hPa | - | - | - | - |
| 1778251263 | 46.11° C | 6% | 1031.5 hPa | - | - | - | - |
| 1778250363 | 45° C | 6% | 1031.5 hPa | - | - | - | - |
| 1778249463 | 37.78° C | 9% | 1031.4 hPa | - | - | - | - |
| 1778248562 | 37.22° C | 9% | 1031.5 hPa | - | - | - | - |
| 1778247662 | 42.78° C | 6% | 1031.6 hPa | - | - | - | - |
| 1778246762 | 40.56° C | 7% | 1031.6 hPa | - | - | - | - |
| 1778245862 | 35.56° C | 10% | 1031.6 hPa | - | - | - | - |
| 1778244962 | 32.22° C | 11% | 1031.7 hPa | - | - | - | - |
| 1778244062 | 34.44° C | 11% | 1031.7 hPa | - | - | - | - |
| 1778243162 | 33.89° C | 11% | 1031.8 hPa | - | - | - | - |
| 1778242262 | 34.44° C | 11% | 1031.7 hPa | - | - | - | - |
| 1778241362 | 33.89° C | 12% | 1031.8 hPa | - | - | - | - |
| 1778240461 | 32.22° C | 13% | 1032 hPa | - | - | - | - |
| 1778239561 | 31.67° C | 13% | 1032.1 hPa | - | - | - | - |
| 1778238661 | 31.11° C | 12% | 1032.1 hPa | - | - | - | - |
| 1778237761 | 29.44° C | 14% | 1032.4 hPa | - | - | - | - |
| 1778236861 | 30° C | 12% | 1032.4 hPa | - | - | - | - |
| 1778235961 | 31.11° C | 12% | 1032.4 hPa | - | - | - | - |
* Rain since midnight (hover to see other rain measurements)
** Current wind speed in m/s (hover to see current wind gust speed)